N941NQ KCLT-KJQF
Flight info
| Callsign | N941NQ |
|---|---|
| Flight time | N/A |
| Altitude | VFR |
| Route | VFR N |
| Aircraft | H60/M-DOV/C |
Departure
| Time | N/A |
|---|---|
| Airport | Charlotte Douglas International Airport (KCLT) |
Arrival
| Time | 2026-04-19 23:07 |
|---|---|
| Airport | Concord-Padgett Regional Airport (KJQF) |
| Time | Latitude | Longitude | Altitude | Speed | Heading |
|---|---|---|---|---|---|
| 2026-04-19 22:53 | 35.20518 | -80.92999 | 713 ft | 0 kts | 79° |
| 2026-04-19 22:55 | 35.20518 | -80.93000 | 716 ft | 0 kts | 77° |
| 2026-04-19 22:59 | 35.20549 | -80.92942 | 745 ft | 17 kts | 80° |
| 2026-04-19 22:59 | 35.20653 | -80.92795 | 785 ft | 38 kts | 59° |
| 2026-04-19 22:59 | 35.20909 | -80.92475 | 858 ft | 67 kts | 46° |
| 2026-04-19 22:59 | 35.21279 | -80.92061 | 815 ft | 71 kts | 39° |
| 2026-04-19 23:00 | 35.21736 | -80.91758 | 806 ft | 79 kts | 27° |
| 2026-04-19 23:00 | 35.22174 | -80.91367 | 843 ft | 82 kts | 31° |
| 2026-04-19 23:00 | 35.22670 | -80.91128 | 812 ft | 73 kts | 17° |
| 2026-04-19 23:00 | 35.23062 | -80.90781 | 789 ft | 79 kts | 35° |
| 2026-04-19 23:01 | 35.23289 | -80.90302 | 858 ft | 62 kts | 46° |
| 2026-04-19 23:01 | 35.23628 | -80.89990 | 877 ft | 62 kts | 37° |
| 2026-04-19 23:01 | 35.23946 | -80.89628 | 897 ft | 69 kts | 36° |
| 2026-04-19 23:01 | 35.24317 | -80.89233 | 877 ft | 78 kts | 36° |
| 2026-04-19 23:02 | 35.24734 | -80.88790 | 840 ft | 78 kts | 36° |
| 2026-04-19 23:02 | 35.25144 | -80.88353 | 876 ft | 78 kts | 35° |
| 2026-04-19 23:02 | 35.25588 | -80.87981 | 887 ft | 77 kts | 28° |
| 2026-04-19 23:02 | 35.26006 | -80.87626 | 929 ft | 74 kts | 32° |
| 2026-04-19 23:03 | 35.26360 | -80.87149 | 941 ft | 75 kts | 39° |
| 2026-04-19 23:03 | 35.26720 | -80.86686 | 961 ft | 80 kts | 40° |
| 2026-04-19 23:03 | 35.27093 | -80.86260 | 1012 ft | 67 kts | 37° |
| 2026-04-19 23:03 | 35.27481 | -80.85922 | 1026 ft | 70 kts | 30° |
| 2026-04-19 23:04 | 35.27877 | -80.85546 | 1032 ft | 75 kts | 34° |
| 2026-04-19 23:04 | 35.28312 | -80.85154 | 1016 ft | 79 kts | 33° |
| 2026-04-19 23:04 | 35.28779 | -80.84753 | 986 ft | 86 kts | 31° |
| 2026-04-19 23:04 | 35.29267 | -80.84315 | 957 ft | 85 kts | 32° |
| 2026-04-19 23:05 | 35.29733 | -80.83884 | 980 ft | 85 kts | 33° |
| 2026-04-19 23:05 | 35.30190 | -80.83479 | 972 ft | 75 kts | 30° |
| 2026-04-19 23:05 | 35.30657 | -80.83161 | 940 ft | 80 kts | 27° |
| 2026-04-19 23:05 | 35.31132 | -80.82899 | 946 ft | 70 kts | 24° |
| 2026-04-19 23:06 | 35.31601 | -80.82654 | 880 ft | 74 kts | 23° |
| 2026-04-19 23:06 | 35.31982 | -80.82372 | 907 ft | 63 kts | 29° |
| 2026-04-19 23:06 | 35.32322 | -80.82093 | 916 ft | 57 kts | 30° |
| 2026-04-19 23:06 | 35.32605 | -80.81754 | 917 ft | 59 kts | 40° |
| 2026-04-19 23:07 | 35.32853 | -80.81381 | 935 ft | 53 kts | 46° |
| 2026-04-19 23:07 | 35.33041 | -80.81024 | 941 ft | 49 kts | 51° |
| 2026-04-19 23:07 | 35.33277 | -80.80670 | 985 ft | 64 kts | 47° |
| 2026-04-19 23:07 | 35.33602 | -80.80218 | 974 ft | 77 kts | 47° |
| 2026-04-19 23:08 | 35.33898 | -80.79637 | 970 ft | 77 kts | 55° |
| 2026-04-19 23:08 | 35.34133 | -80.79039 | 971 ft | 83 kts | 59° |
| 2026-04-19 23:08 | 35.34401 | -80.78410 | 950 ft | 82 kts | 59° |
| 2026-04-19 23:08 | 35.34661 | -80.77820 | 918 ft | 74 kts | 59° |
| 2026-04-19 23:09 | 35.34871 | -80.77308 | 894 ft | 60 kts | 60° |
| 2026-04-19 23:09 | 35.35004 | -80.76909 | 878 ft | 45 kts | 63° |
| 2026-04-19 23:09 | 35.35084 | -80.76624 | 879 ft | 22 kts | 66° |
| 2026-04-19 23:09 | 35.35139 | -80.76413 | 910 ft | 36 kts | 68° |
| 2026-04-19 23:10 | 35.35275 | -80.75986 | 989 ft | 71 kts | 65° |
| 2026-04-19 23:10 | 35.35474 | -80.75337 | 1004 ft | 83 kts | 66° |
| 2026-04-19 23:10 | 35.35686 | -80.74709 | 940 ft | 82 kts | 62° |
| 2026-04-19 23:10 | 35.36078 | -80.74207 | 914 ft | 81 kts | 45° |
| 2026-04-19 23:11 | 35.36477 | -80.73724 | 874 ft | 79 kts | 43° |
| 2026-04-19 23:11 | 35.36828 | -80.73259 | 912 ft | 69 kts | 46° |
| 2026-04-19 23:11 | 35.37118 | -80.72843 | 918 ft | 60 kts | 46° |
| 2026-04-19 23:11 | 35.37385 | -80.72478 | 894 ft | 54 kts | 46° |
| 2026-04-19 23:12 | 35.37625 | -80.72177 | 838 ft | 44 kts | 46° |
| 2026-04-19 23:12 | 35.37791 | -80.71933 | 813 ft | 31 kts | 48° |
| 2026-04-19 23:12 | 35.37914 | -80.71752 | 803 ft | 30 kts | 50° |
| 2026-04-19 23:12 | 35.38046 | -80.71538 | 774 ft | 31 kts | 52° |
| 2026-04-19 23:13 | 35.38147 | -80.71387 | 696 ft | 10 kts | 54° |
| 2026-04-19 23:13 | 35.38153 | -80.71442 | 669 ft | 12 kts | 79° |
| 2026-04-19 23:13 | 35.38189 | -80.71350 | 699 ft | 25 kts | 79° |
| 2026-04-19 23:13 | 35.38219 | -80.71288 | 658 ft | 0 kts | 18° |
| 2026-04-19 23:18 | 35.38218 | -80.71288 | 658 ft | 0 kts | 18° |